Time;durP1;ratioP1;P1;durP2;ratioP2;P2;SDS_P1;SDS_P2;PMS_P1;PMS_P2;Temp;Humidity;BMP_temperature;BMP_pressure;BME280_temperature;BME280_humidity;BME280_pressure;Samples;Min_cycle;Max_cycle;Signal;HPM_P1;HPM_P2
2023/08/22 00:00:16;;;;;;;6.40;2.37;;;22.10;99.90;;;;;;5076012;28;20204;-65
2023/08/22 00:02:43;;;;;;;3.03;1.97;;;22.10;99.90;;;;;;5080450;28;20644;-58
2023/08/22 00:05:09;;;;;;;3.40;1.90;;;22.10;99.90;;;;;;5081631;28;20209;-58
2023/08/22 00:07:34;;;;;;;5.60;2.03;;;22.00;99.90;;;;;;5082225;28;20185;-63
2023/08/22 00:10:00;;;;;;;2.77;2.00;;;22.00;99.90;;;;;;5063011;28;20519;-58
2023/08/22 00:12:26;;;;;;;3.40;2.23;;;21.90;99.90;;;;;;5082944;28;20213;-57
2023/08/22 00:14:51;;;;;;;4.53;2.00;;;21.90;99.90;;;;;;5064137;28;20231;-61
2023/08/22 00:17:17;;;;;;;2.93;2.30;;;21.90;99.90;;;;;;5057078;28;20589;-57
2023/08/22 00:19:44;;;;;;;3.20;1.80;;;21.90;99.90;;;;;;5059776;28;20205;-58
2023/08/22 00:22:11;;;;;;;3.50;2.53;;;21.80;99.90;;;;;;5080328;28;20178;-59
2023/08/22 00:24:38;;;;;;;4.63;2.37;;;21.80;99.90;;;;;;5083694;28;20228;-56
2023/08/22 00:27:04;;;;;;;4.63;2.00;;;21.80;99.90;;;;;;5085478;28;20185;-63
2023/08/22 00:29:29;;;;;;;3.43;2.20;;;21.80;99.90;;;;;;5075824;28;20221;-66
2023/08/22 00:31:56;;;;;;;3.80;1.87;;;21.80;99.90;;;;;;5104634;28;20618;-64
2023/08/22 00:34:22;;;;;;;3.23;2.03;;;21.80;99.90;;;;;;5104002;28;20268;-63
2023/08/22 00:36:47;;;;;;;3.53;2.03;;;21.80;99.90;;;;;;5084358;28;20906;-64
2023/08/22 00:39:12;;;;;;;7.27;2.80;;;21.80;99.90;;;;;;5094900;28;20185;-63
2023/08/22 00:41:38;;;;;;;5.77;2.67;;;21.80;99.90;;;;;;5091442;28;20198;-64
2023/08/22 00:44:04;;;;;;;5.83;2.03;;;21.70;99.90;;;;;;5085616;28;20750;-57
2023/08/22 00:46:30;;;;;;;3.97;1.90;;;21.70;99.90;;;;;;5090236;28;20196;-57
2023/08/22 00:48:55;;;;;;;5.90;2.43;;;21.60;99.90;;;;;;5086379;28;20839;-67
2023/08/22 00:51:22;;;;;;;3.93;2.10;;;21.60;99.90;;;;;;5087352;28;20290;-57
2023/08/22 00:53:48;;;;;;;4.00;2.30;;;21.60;99.90;;;;;;5096108;28;20199;-65
2023/08/22 00:56:14;;;;;;;5.03;2.13;;;21.50;99.90;;;;;;5094626;28;20190;-56
2023/08/22 00:58:40;;;;;;;5.20;2.13;;;21.50;99.90;;;;;;5092766;28;20181;-57
2023/08/22 01:01:06;;;;;;;3.37;2.87;;;21.50;99.90;;;;;;5099519;28;20204;-59
2023/08/22 01:03:31;;;;;;;4.67;2.33;;;21.50;99.90;;;;;;5099808;28;21044;-59
2023/08/22 01:06:08;;;;;;;3.67;2.03;;;21.40;99.90;;;;;;5092811;28;20213;-57
2023/08/22 01:08:36;;;;;;;3.03;2.20;;;21.40;99.90;;;;;;5049617;28;20713;-57
2023/08/22 01:11:12;;;;;;;4.20;2.37;;;21.50;99.90;;;;;;5104605;28;20205;-57
2023/08/22 01:13:41;;;;;;;6.53;2.03;;;21.40;99.90;;;;;;5084369;28;20181;-68
2023/08/22 01:16:07;;;;;;;2.10;1.90;;;21.50;99.90;;;;;;5096323;28;20667;-57
2023/08/22 01:18:34;;;;;;;3.63;2.27;;;21.50;99.90;;;;;;5084983;28;20202;-57
2023/08/22 01:21:06;;;;;;;3.40;1.83;;;21.40;99.90;;;;;;5090044;28;20561;-56
2023/08/22 01:23:31;;;;;;;2.23;1.87;;;21.40;99.90;;;;;;5078816;28;20651;-63
2023/08/22 01:25:58;;;;;;;4.63;1.90;;;21.40;99.90;;;;;;5086321;28;20192;-60
2023/08/22 01:28:36;;;;;;;5.53;2.63;;;21.40;99.90;;;;;;5085295;28;20213;-55
2023/08/22 01:31:26;;;;;;;4.57;1.97;;;21.50;99.90;;;;;;5065864;28;20312;-55
2023/08/22 01:33:58;;;;;;;3.50;2.10;;;21.40;99.90;;;;;;5064706;28;20232;-55
2023/08/22 01:40:09;;;;;;;1.97;1.60;;;21.40;99.90;;;;;;5068110;28;20237;-55
2023/08/22 01:42:35;;;;;;;4.83;2.07;;;21.40;99.90;;;;;;5073647;28;20197;-57
2023/08/22 01:45:00;;;;;;;4.80;2.40;;;21.40;99.90;;;;;;5053223;28;20180;-57
2023/08/22 01:47:26;;;;;;;4.37;2.33;;;21.50;99.90;;;;;;5047928;28;20201;-55
2023/08/22 01:49:51;;;;;;;5.17;2.30;;;21.50;99.90;;;;;;5062606;28;20271;-54
2023/08/22 01:52:17;;;;;;;3.47;2.20;;;21.50;99.90;;;;;;5084025;28;20217;-55
2023/08/22 01:54:43;;;;;;;5.03;2.27;;;21.50;99.90;;;;;;5083702;28;20994;-54
2023/08/22 01:57:09;;;;;;;4.20;2.07;;;21.60;99.90;;;;;;5083644;28;20221;-56
2023/08/22 01:59:34;;;;;;;4.10;2.17;;;21.60;99.90;;;;;;5057583;28;20284;-55
2023/08/22 02:02:00;;;;;;;4.03;2.37;;;21.60;99.90;;;;;;5054356;28;20193;-58
2023/08/22 02:04:25;;;;;;;5.53;2.00;;;21.50;99.90;;;;;;5048481;28;20204;-54
2023/08/22 02:06:51;;;;;;;2.73;1.73;;;21.50;99.90;;;;;;5080900;28;20230;-55
2023/08/22 02:09:17;;;;;;;5.50;1.77;;;21.50;99.90;;;;;;5079018;28;20569;-56
2023/08/22 02:11:42;;;;;;;5.37;2.17;;;21.50;99.90;;;;;;5083268;28;20220;-55
2023/08/22 02:14:08;;;;;;;2.23;1.70;;;21.50;99.90;;;;;;5083014;28;20205;-55
2023/08/22 02:16:33;;;;;;;3.43;2.10;;;21.50;99.90;;;;;;5064954;28;20196;-55
2023/08/22 02:18:59;;;;;;;3.23;1.77;;;21.50;99.90;;;;;;5083679;28;20185;-55
2023/08/22 02:21:25;;;;;;;3.57;2.00;;;21.50;99.90;;;;;;5083072;28;20197;-56
2023/08/22 02:23:50;;;;;;;2.67;2.27;;;21.50;99.90;;;;;;5065361;28;20594;-55
2023/08/22 02:26:16;;;;;;;2.50;1.50;;;21.40;99.90;;;;;;5068267;28;20198;-55
2023/08/22 02:28:41;;;;;;;5.03;1.50;;;21.50;99.90;;;;;;5082997;28;20837;-55
2023/08/22 02:31:07;;;;;;;5.67;2.20;;;21.40;99.90;;;;;;5083699;28;20213;-54
2023/08/22 02:33:32;;;;;;;4.53;1.80;;;21.30;99.90;;;;;;5066072;28;20691;-55
2023/08/22 02:35:58;;;;;;;2.93;2.00;;;21.30;99.90;;;;;;5082141;28;20256;-55
2023/08/22 02:38:24;;;;;;;5.40;2.00;;;21.40;99.90;;;;;;5063277;28;20347;-55
2023/08/22 02:40:49;;;;;;;5.43;1.93;;;21.40;99.90;;;;;;5082536;28;20988;-55
2023/08/22 02:43:16;;;;;;;6.93;2.07;;;21.40;99.90;;;;;;5047971;28;20682;-55
2023/08/22 02:45:44;;;;;;;3.63;2.27;;;21.40;99.90;;;;;;5075214;28;20202;-54
2023/08/22 02:48:10;;;;;;;4.97;1.93;;;21.20;99.90;;;;;;5063787;28;20627;-54
2023/08/22 02:50:36;;;;;;;5.07;2.60;;;21.10;99.90;;;;;;5075427;28;20667;-55
2023/08/22 02:53:02;;;;;;;4.70;1.83;;;21.10;99.90;;;;;;5082051;28;20361;-55
2023/08/22 02:55:28;;;;;;;4.10;1.83;;;21.20;99.90;;;;;;5053409;28;20201;-55
2023/08/22 02:57:53;;;;;;;2.50;2.10;;;21.20;99.90;;;;;;5050379;28;20538;-55
2023/08/22 03:00:19;;;;;;;5.23;1.73;;;21.20;99.90;;;;;;5082287;28;20201;-55
2023/08/22 03:02:44;;;;;;;3.33;2.07;;;21.20;99.90;;;;;;5080581;28;20219;-55
2023/08/22 03:05:14;;;;;;;3.37;2.17;;;21.30;99.90;;;;;;5076508;28;20217;-55
2023/08/22 03:07:39;;;;;;;2.40;1.97;;;21.30;99.90;;;;;;5044136;28;20288;-55
2023/08/22 03:10:07;;;;;;;3.97;1.80;;;21.30;99.90;;;;;;5081639;28;20200;-55
2023/08/22 03:12:33;;;;;;;3.73;2.00;;;21.30;99.90;;;;;;5082153;28;20210;-55
2023/08/22 03:14:59;;;;;;;4.93;1.83;;;21.30;99.90;;;;;;5079734;28;20215;-55
2023/08/22 03:17:24;;;;;;;2.60;2.00;;;21.30;99.90;;;;;;5081196;28;20197;-55
2023/08/22 03:19:49;;;;;;;5.93;2.23;;;21.30;99.90;;;;;;5063803;28;20185;-55
2023/08/22 03:22:16;;;;;;;10.37;2.17;;;21.30;99.90;;;;;;5074965;28;20927;-55
2023/08/22 03:24:42;;;;;;;6.00;2.23;;;21.30;99.90;;;;;;5081491;28;20472;-55
2023/08/22 03:27:07;;;;;;;6.80;1.80;;;21.30;99.90;;;;;;5082278;28;20838;-55
2023/08/22 03:29:33;;;;;;;7.20;2.47;;;21.30;99.90;;;;;;5082207;28;20697;-55
2023/08/22 03:31:58;;;;;;;4.70;1.90;;;21.30;99.90;;;;;;5055220;28;20217;-56
2023/08/22 03:34:24;;;;;;;3.33;1.70;;;21.10;99.90;;;;;;5082117;28;20185;-56
2023/08/22 03:36:49;;;;;;;4.70;1.97;;;21.20;99.90;;;;;;5081992;28;20678;-56
2023/08/22 03:39:15;;;;;;;5.90;1.93;;;21.20;99.90;;;;;;5077777;28;21060;-57
2023/08/22 03:41:40;;;;;;;3.13;1.63;;;21.10;99.90;;;;;;5081394;28;20205;-55
2023/08/22 03:44:06;;;;;;;7.33;2.00;;;21.20;99.90;;;;;;5075728;28;20197;-56
2023/08/22 03:46:31;;;;;;;6.47;2.30;;;21.20;99.90;;;;;;5081162;28;20203;-56
2023/08/22 03:48:57;;;;;;;6.20;2.27;;;21.30;99.90;;;;;;5082157;28;20212;-57
2023/08/22 03:51:23;;;;;;;2.27;1.53;;;21.30;99.90;;;;;;5079945;28;20220;-56
2023/08/22 03:53:49;;;;;;;2.13;1.77;;;21.20;99.90;;;;;;5081876;28;20235;-56
2023/08/22 03:56:15;;;;;;;6.83;1.80;;;21.10;99.90;;;;;;5081401;28;20193;-55
2023/08/22 03:58:41;;;;;;;3.03;1.90;;;21.20;99.90;;;;;;5081234;28;20220;-56
2023/08/22 04:01:06;;;;;;;3.33;2.20;;;21.10;99.90;;;;;;5071094;28;20198;-56
2023/08/22 04:03:32;;;;;;;1.90;1.50;;;21.10;99.90;;;;;;5064824;28;20202;-56
2023/08/22 04:06:03;;;;;;;2.30;1.70;;;21.10;99.90;;;;;;5051628;28;20935;-57
2023/08/22 04:08:28;;;;;;;1.77;1.67;;;21.10;99.90;;;;;;5073534;28;20570;-56
2023/08/22 04:10:54;;;;;;;2.63;1.90;;;21.10;99.90;;;;;;5071421;28;20196;-56
2023/08/22 04:13:20;;;;;;;2.80;1.80;;;21.10;99.90;;;;;;5081656;28;20204;-56
2023/08/22 04:15:45;;;;;;;4.87;2.60;;;21.10;99.90;;;;;;5052532;28;20200;-56
2023/08/22 04:18:11;;;;;;;6.07;2.07;;;21.10;99.90;;;;;;5081915;28;20445;-56
2023/08/22 04:20:37;;;;;;;3.63;1.53;;;21.10;99.90;;;;;;5055494;28;20295;-55
2023/08/22 04:23:03;;;;;;;5.13;1.97;;;21.10;99.90;;;;;;5075823;28;20277;-57
2023/08/22 04:25:28;;;;;;;7.10;2.00;;;21.10;99.90;;;;;;5080115;28;20207;-53
2023/08/22 04:27:54;;;;;;;4.20;1.70;;;21.00;99.90;;;;;;5080350;28;20203;-61
2023/08/22 04:30:19;;;;;;;3.63;1.90;;;21.00;99.90;;;;;;5080100;28;20197;-56
2023/08/22 04:32:45;;;;;;;3.40;1.70;;;21.00;99.90;;;;;;5070937;28;20238;-57
2023/08/22 04:35:10;;;;;;;2.07;1.83;;;21.00;99.90;;;;;;5080437;28;20254;-55
2023/08/22 04:37:36;;;;;;;4.63;1.80;;;21.00;99.90;;;;;;5081289;28;20226;-56
2023/08/22 04:40:03;;;;;;;4.00;1.67;;;21.00;99.90;;;;;;5075621;28;20244;-56
2023/08/22 04:42:29;;;;;;;3.93;1.47;;;21.00;99.90;;;;;;5061444;28;20276;-56
2023/08/22 04:44:55;;;;;;;2.30;1.67;;;21.10;99.90;;;;;;5078130;28;20689;-56
2023/08/22 04:47:20;;;;;;;6.23;1.73;;;21.20;99.90;;;;;;5081269;28;20312;-55
2023/08/22 04:49:46;;;;;;;1.40;1.30;;;21.20;99.90;;;;;;5077009;28;20195;-55
2023/08/22 04:52:12;;;;;;;3.57;2.10;;;21.20;99.90;;;;;;5080298;28;20684;-55
2023/08/22 04:54:37;;;;;;;3.23;1.57;;;21.20;99.90;;;;;;5062919;28;20201;-56
2023/08/22 04:57:03;;;;;;;2.20;1.97;;;21.20;99.90;;;;;;5062491;28;20188;-56
2023/08/22 04:59:28;;;;;;;2.93;1.90;;;21.20;99.90;;;;;;5081213;28;20193;-55
2023/08/22 05:01:54;;;;;;;6.07;1.83;;;21.30;99.90;;;;;;5069130;28;20563;-57
2023/08/22 05:04:20;;;;;;;2.23;1.53;;;21.30;99.90;;;;;;5081639;28;20209;-55
2023/08/22 05:06:45;;;;;;;4.80;2.00;;;21.30;99.90;;;;;;5081209;28;20327;-56
2023/08/22 05:09:14;;;;;;;4.00;2.17;;;21.20;99.90;;;;;;5062931;28;20189;-55
2023/08/22 05:11:40;;;;;;;5.03;2.03;;;21.30;99.90;;;;;;5064777;28;20213;-55
2023/08/22 05:14:06;;;;;;;3.93;1.70;;;21.30;99.90;;;;;;5084386;28;20194;-56
2023/08/22 05:16:31;;;;;;;3.43;1.70;;;21.30;99.90;;;;;;5077958;28;20289;-56
2023/08/22 05:18:57;;;;;;;2.60;1.70;;;21.40;99.90;;;;;;5084082;28;20258;-55
2023/08/22 05:21:22;;;;;;;4.80;1.97;;;21.40;99.90;;;;;;5084752;28;20965;-58
2023/08/22 05:23:48;;;;;;;4.40;1.90;;;21.40;99.90;;;;;;5085065;28;20758;-56
2023/08/22 05:26:13;;;;;;;2.97;1.63;;;21.40;99.90;;;;;;5084490;28;20209;-56
2023/08/22 05:28:39;;;;;;;5.23;2.00;;;21.40;99.90;;;;;;5084443;28;20761;-56
2023/08/22 05:31:04;;;;;;;5.83;1.93;;;21.40;99.90;;;;;;5065630;28;20266;-56
2023/08/22 05:33:30;;;;;;;5.20;2.33;;;21.40;99.90;;;;;;5074233;28;20213;-55
2023/08/22 05:35:55;;;;;;;4.37;2.10;;;21.40;99.90;;;;;;5066088;28;20212;-55
2023/08/22 05:38:21;;;;;;;5.73;2.10;;;21.50;99.90;;;;;;5065717;28;20192;-55
2023/08/22 05:40:46;;;;;;;4.77;2.37;;;21.40;99.90;;;;;;5083754;28;20306;-56
2023/08/22 05:43:12;;;;;;;4.80;1.90;;;21.40;99.90;;;;;;5062191;28;20222;-55
2023/08/22 05:45:37;;;;;;;6.27;3.00;;;21.50;99.90;;;;;;5063592;28;20952;-55
2023/08/22 05:48:03;;;;;;;2.97;1.47;;;21.50;99.90;;;;;;5065675;28;20288;-55
2023/08/22 05:50:29;;;;;;;3.97;2.17;;;21.60;99.90;;;;;;5065971;28;20816;-55
2023/08/22 05:52:54;;;;;;;3.10;2.00;;;21.70;99.90;;;;;;5082755;28;20300;-55
2023/08/22 05:55:20;;;;;;;3.97;2.00;;;21.70;99.90;;;;;;5083803;28;20268;-57
2023/08/22 05:57:45;;;;;;;4.17;2.23;;;21.60;99.90;;;;;;5083908;28;20333;-55
2023/08/22 06:00:12;;;;;;;6.47;2.60;;;21.60;99.90;;;;;;5084451;28;20212;-54
2023/08/22 06:02:38;;;;;;;4.17;2.10;;;21.70;99.90;;;;;;5081618;28;20209;-55
2023/08/22 06:05:06;;;;;;;2.33;1.77;;;21.70;99.90;;;;;;5063375;28;20299;-55
2023/08/22 06:07:32;;;;;;;4.97;2.07;;;21.60;99.90;;;;;;5069557;28;20198;-55
2023/08/22 06:09:58;;;;;;;3.73;2.20;;;21.50;99.90;;;;;;5083075;28;20194;-54
2023/08/22 06:12:24;;;;;;;4.00;1.83;;;21.60;99.90;;;;;;5082145;28;20220;-55
2023/08/22 06:14:50;;;;;;;6.03;2.57;;;21.60;99.90;;;;;;5080892;28;20282;-54
2023/08/22 06:17:19;;;;;;;3.33;1.70;;;21.60;99.90;;;;;;5082548;28;20205;-55
2023/08/22 06:19:48;;;;;;;4.77;1.80;;;21.60;99.90;;;;;;5083279;28;20190;-55
2023/08/22 06:22:14;;;;;;;6.17;2.37;;;21.70;99.90;;;;;;5080741;28;20271;-55
2023/08/22 06:24:39;;;;;;;5.33;2.40;;;21.70;99.90;;;;;;5079632;28;20240;-55
2023/08/22 06:27:05;;;;;;;6.77;1.90;;;21.70;99.90;;;;;;5082583;28;20192;-55
2023/08/22 06:29:32;;;;;;;3.43;1.70;;;21.80;99.90;;;;;;5073790;28;20204;-55
2023/08/22 06:32:00;;;;;;;3.93;1.77;;;21.90;99.90;;;;;;5060810;28;20221;-55
2023/08/22 06:34:26;;;;;;;6.57;2.20;;;21.80;99.90;;;;;;5069466;28;20225;-54
2023/08/22 06:36:51;;;;;;;4.10;2.40;;;21.80;99.90;;;;;;5082257;28;20255;-55
2023/08/22 06:39:17;;;;;;;4.33;2.10;;;21.80;99.90;;;;;;5083163;28;20650;-55
2023/08/22 06:41:43;;;;;;;3.90;1.73;;;21.80;99.90;;;;;;5075056;28;20215;-55
2023/08/22 06:44:09;;;;;;;4.20;1.73;;;21.80;99.90;;;;;;5071402;28;20229;-55
2023/08/22 06:46:37;;;;;;;5.70;2.40;;;21.70;99.90;;;;;;5082490;28;20188;-55
2023/08/22 06:49:03;;;;;;;3.93;1.67;;;21.70;99.90;;;;;;5081415;28;20193;-55
2023/08/22 06:51:29;;;;;;;4.45;1.63;;;21.90;99.90;;;;;;5082410;28;20219;-56
2023/08/22 06:53:55;;;;;;;3.03;1.63;;;22.10;99.90;;;;;;5071298;28;20207;-55
2023/08/22 06:56:20;;;;;;;3.37;2.00;;;22.20;99.90;;;;;;5063714;28;20318;-55
2023/08/22 06:58:46;;;;;;;2.40;1.60;;;22.30;99.90;;;;;;5064497;28;20197;-55
2023/08/22 07:01:12;;;;;;;3.70;1.53;;;22.40;99.90;;;;;;5056911;28;20196;-61
2023/08/22 07:03:37;;;;;;;3.43;1.60;;;22.50;99.90;;;;;;5082607;28;20199;-59
2023/08/22 07:06:03;;;;;;;4.47;1.80;;;22.50;99.90;;;;;;5142120;22;20244;-60
2023/08/22 07:08:28;;;;;;;5.00;2.03;;;22.50;99.90;;;;;;5095573;28;20549;-59
2023/08/22 07:11:00;;;;;;;5.43;2.00;;;22.40;99.90;;;;;;5084199;28;20427;-56
2023/08/22 07:13:25;;;;;;;4.30;2.10;;;22.40;99.90;;;;;;5080763;28;20292;-58
2023/08/22 07:15:51;;;;;;;2.93;1.80;;;22.40;99.90;;;;;;5098487;28;20299;-58
2023/08/22 07:18:16;;;;;;;4.53;1.67;;;22.40;99.90;;;;;;5100117;28;20445;-59
2023/08/22 07:20:42;;;;;;;4.77;1.93;;;22.50;99.90;;;;;;5099509;28;20189;-56
2023/08/22 07:23:07;;;;;;;5.35;1.65;;;22.60;99.90;;;;;;5099493;28;20530;-57
2023/08/22 07:25:33;;;;;;;3.90;1.70;;;22.70;99.90;;;;;;5099661;28;20592;-65
2023/08/22 07:27:58;;;;;;;2.88;1.83;;;22.70;99.90;;;;;;5098404;28;20615;-58
2023/08/22 07:30:24;;;;;;;4.80;2.13;;;22.80;99.90;;;;;;5083929;28;20177;-58
2023/08/22 07:32:49;;;;;;;4.40;1.67;;;22.70;99.90;;;;;;5098903;28;20804;-56
2023/08/22 07:35:15;;;;;;;7.07;1.60;;;22.60;99.90;;;;;;5080250;28;20196;-64
2023/08/22 07:37:40;;;;;;;2.30;1.40;;;22.60;99.90;;;;;;5083653;28;20184;-60
2023/08/22 07:40:06;;;;;;;2.53;2.10;;;22.60;99.90;;;;;;5102130;28;20192;-58
2023/08/22 07:42:34;;;;;;;4.03;2.07;;;22.60;99.90;;;;;;5078318;28;20291;-59
2023/08/22 07:45:01;;;;;;;5.97;2.80;;;22.70;99.90;;;;;;5085566;28;20177;-65
2023/08/22 07:47:26;;;;;;;6.67;1.83;;;22.80;99.90;;;;;;5087048;28;20193;-63
2023/08/22 07:49:52;;;;;;;4.25;1.83;;;23.00;99.90;;;;;;5101990;28;20193;-63
2023/08/22 07:52:17;;;;;;;2.07;1.43;;;23.10;99.90;;;;;;5101806;28;20216;-63
2023/08/22 07:54:43;;;;;;;3.60;2.13;;;23.10;99.90;;;;;;5083803;28;20222;-64
2023/08/22 07:57:09;;;;;;;7.47;2.00;;;23.20;99.90;;;;;;5083717;28;20907;-60
2023/08/22 07:59:34;;;;;;;3.35;1.70;;;23.20;99.90;;;;;;5102245;28;20219;-60
2023/08/22 08:02:00;;;;;;;1.83;1.52;;;23.20;99.90;;;;;;5101921;28;20234;-60
2023/08/22 08:04:26;;;;;;;3.00;1.70;;;23.10;99.90;;;;;;5101302;28;20987;-60
2023/08/22 08:06:51;;;;;;;3.30;2.30;;;23.20;99.90;;;;;;5099049;28;20228;-60
2023/08/22 08:09:17;;;;;;;1.60;1.50;;;23.20;99.90;;;;;;5102180;28;20273;-60
2023/08/22 08:11:42;;;;;;;3.53;1.40;;;23.20;99.90;;;;;;5107086;28;20311;-60
2023/08/22 08:14:08;;;;;;;4.80;2.03;;;23.10;99.90;;;;;;5102358;28;20194;-60
2023/08/22 08:16:34;;;;;;;4.10;1.88;;;23.20;99.90;;;;;;5100959;28;20723;-62
2023/08/22 08:18:59;;;;;;;5.03;2.00;;;23.10;99.90;;;;;;5107895;28;20682;-60
2023/08/22 08:21:25;;;;;;;7.13;2.15;;;23.10;99.90;;;;;;5100428;28;20207;-62
2023/08/22 08:23:50;;;;;;;2.65;1.60;;;23.20;99.90;;;;;;5099725;28;20605;-57
2023/08/22 08:26:16;;;;;;;9.55;2.22;;;23.10;99.90;;;;;;5099276;28;20685;-56
2023/08/22 08:28:41;;;;;;;8.18;2.20;;;23.20;99.90;;;;;;5102054;28;20257;-57
2023/08/22 08:31:07;;;;;;;4.70;2.60;;;23.20;99.90;;;;;;5102521;28;20189;-58
2023/08/22 08:33:32;;;;;;;4.83;2.10;;;23.20;99.90;;;;;;5104539;28;20427;-57
2023/08/22 08:35:58;;;;;;;4.75;2.28;;;23.20;99.90;;;;;;5091605;28;20189;-58
2023/08/22 08:38:24;;;;;;;4.03;2.17;;;23.20;99.90;;;;;;5103592;28;20192;-58
2023/08/22 08:40:52;;;;;;;3.22;1.50;;;23.10;99.90;;;;;;5099564;28;20359;-57
2023/08/22 08:43:21;;;;;;;5.85;1.70;;;23.10;99.90;;;;;;5097108;28;20234;-59
2023/08/22 08:45:47;;;;;;;4.10;2.20;;;23.20;99.90;;;;;;5102089;28;20186;-64
2023/08/22 08:48:14;;;;;;;6.55;2.20;;;23.20;99.90;;;;;;5106413;27;20188;-63
2023/08/22 08:50:39;;;;;;;5.18;2.42;;;23.40;99.90;;;;;;5106165;27;20193;-62
2023/08/22 08:53:05;;;;;;;6.13;2.40;;;23.40;99.90;;;;;;5104902;27;20236;-67
2023/08/22 08:55:32;;;;;;;6.82;1.98;;;23.40;99.90;;;;;;5105938;28;20250;-63
2023/08/22 08:57:58;;;;;;;2.45;1.70;;;23.30;99.90;;;;;;5099955;28;20194;-57
2023/08/22 09:00:23;;;;;;;4.63;1.98;;;23.30;99.90;;;;;;5104000;27;20195;-65
2023/08/22 09:02:49;;;;;;;3.22;2.17;;;23.20;99.90;;;;;;5097422;28;20194;-65
2023/08/22 09:05:15;;;;;;;3.78;1.50;;;23.40;99.90;;;;;;5099787;27;20215;-63
2023/08/22 09:07:44;;;;;;;2.63;1.85;;;23.60;99.90;;;;;;5100608;27;20222;-59
2023/08/22 09:10:12;;;;;;;5.15;1.42;;;23.80;99.90;;;;;;5101993;28;20199;-57
2023/08/22 09:12:38;;;;;;;6.28;1.85;;;23.90;99.90;;;;;;5105119;27;20217;-64
2023/08/22 09:15:09;;;;;;;2.10;1.67;;;24.10;99.90;;;;;;5103308;27;20178;-61
2023/08/22 09:17:35;;;;;;;5.93;1.77;;;24.20;99.90;;;;;;5114331;27;20320;-61
2023/08/22 09:20:09;;;;;;;5.72;2.05;;;24.20;99.90;;;;;;5109940;27;20301;-60
2023/08/22 09:22:34;;;;;;;5.75;2.35;;;24.20;99.90;;;;;;5092779;28;20223;-61
2023/08/22 09:25:00;;;;;;;10.32;2.17;;;24.30;99.90;;;;;;5117406;27;20636;-61
2023/08/22 09:27:26;;;;;;;5.75;2.20;;;24.30;99.90;;;;;;5124674;27;20185;-60
2023/08/22 09:29:53;;;;;;;3.90;2.17;;;24.40;99.90;;;;;;5092084;27;20298;-60
2023/08/22 09:32:22;;;;;;;5.38;1.85;;;24.60;99.40;;;;;;5111401;27;20220;-66
2023/08/22 09:34:59;;;;;;;4.90;2.17;;;24.60;99.30;;;;;;5107924;27;20594;-69
2023/08/22 09:37:35;;;;;;;3.03;2.10;;;24.50;99.90;;;;;;5101536;28;20181;-57
2023/08/22 09:40:03;;;;;;;3.40;2.10;;;24.40;99.90;;;;;;5102346;28;20179;-62
2023/08/22 09:42:29;;;;;;;8.60;2.33;;;24.40;99.90;;;;;;5100220;27;20222;-59
2023/08/22 09:44:56;;;;;;;4.15;1.50;;;24.30;99.90;;;;;;5102297;28;20615;-58
2023/08/22 09:47:25;;;;;;;9.30;2.53;;;24.40;99.90;;;;;;5102260;27;20916;-64
2023/08/22 09:49:56;;;;;;;4.65;2.42;;;24.40;99.90;;;;;;5102070;27;20185;-58
2023/08/22 09:52:23;;;;;;;5.95;2.83;;;24.50;99.90;;;;;;5099032;28;20233;-59
2023/08/22 09:54:49;;;;;;;3.15;2.38;;;24.70;99.90;;;;;;5101217;27;20276;-65
2023/08/22 09:57:16;;;;;;;6.97;2.25;;;24.80;99.90;;;;;;5106710;27;20415;-57
2023/08/22 09:59:42;;;;;;;3.03;2.15;;;24.90;99.80;;;;;;5114885;27;20205;-57
2023/08/22 10:02:08;;;;;;;3.78;1.80;;;25.00;99.00;;;;;;5113057;27;20203;-56
2023/08/22 10:04:34;;;;;;;4.90;2.33;;;25.00;98.10;;;;;;5117550;27;20216;-56
2023/08/22 10:06:59;;;;;;;2.97;1.88;;;25.00;99.90;;;;;;5111440;27;20222;-59
2023/08/22 10:09:26;;;;;;;4.38;2.08;;;25.00;98.30;;;;;;5101875;27;20190;-59
2023/08/22 10:12:02;;;;;;;4.30;2.40;;;25.00;98.60;;;;;;5101349;27;20211;-60
2023/08/22 10:14:31;;;;;;;2.42;1.90;;;25.00;99.90;;;;;;5086978;28;20251;-69
2023/08/22 10:16:58;;;;;;;3.95;1.85;;;25.00;99.90;;;;;;5106713;27;20248;-67
2023/08/22 10:19:25;;;;;;;3.40;1.77;;;25.00;99.90;;;;;;5090324;27;20205;-60
2023/08/22 10:21:53;;;;;;;8.68;2.40;;;25.20;99.00;;;;;;5104710;27;20176;-62
2023/08/22 10:24:21;;;;;;;8.50;1.92;;;25.20;99.50;;;;;;5092157;27;20619;-80
2023/08/22 10:27:02;;;;;;;6.13;2.17;;;25.30;99.90;;;;;;5106616;27;20217;-64
2023/08/22 10:30:06;;;;;;;3.00;1.63;;;25.40;99.70;;;;;;5093509;28;20195;-64
2023/08/22 10:32:32;;;;;;;3.75;1.67;;;25.40;99.90;;;;;;5092717;28;20733;-61
2023/08/22 10:35:02;;;;;;;6.88;1.60;;;25.40;99.90;;;;;;5104185;27;20195;-60
2023/08/22 10:37:28;;;;;;;2.08;1.60;;;25.40;99.90;;;;;;5100743;27;20189;-59
2023/08/22 10:39:58;;;;;;;4.82;2.58;;;25.40;99.90;;;;;;5101684;27;20208;-59
2023/08/22 10:42:25;;;;;;;4.43;1.52;;;25.60;99.90;;;;;;5105995;27;20187;-68
2023/08/22 10:44:52;;;;;;;3.40;1.63;;;25.80;99.90;;;;;;5108491;27;20203;-60
2023/08/22 10:47:19;;;;;;;4.45;1.98;;;25.70;99.90;;;;;;5114558;27;20192;-57
2023/08/22 10:49:48;;;;;;;3.53;2.10;;;25.70;99.90;;;;;;5102446;27;20273;-59
2023/08/22 10:52:15;;;;;;;4.28;2.05;;;25.70;99.90;;;;;;5109966;27;20221;-60
2023/08/22 10:54:59;;;;;;;4.68;2.47;;;25.70;99.30;;;;;;5100181;27;20183;-63
2023/08/22 10:57:25;;;;;;;8.27;2.03;;;25.70;99.90;;;;;;5100985;27;20192;-61
2023/08/22 11:00:21;;;;;;;6.90;2.05;;;25.60;99.90;;;;;;5101905;27;20193;-59
2023/08/22 11:02:51;;;;;;;6.43;2.58;;;25.50;99.60;;;;;;5098208;28;20207;-59
2023/08/22 11:05:17;;;;;;;10.75;2.58;;;25.50;99.70;;;;;;5103098;27;20200;-59
2023/08/22 11:07:46;;;;;;;5.13;1.95;;;25.50;99.50;;;;;;5085296;27;20224;-63
2023/08/22 11:10:14;;;;;;;3.03;1.90;;;25.40;99.50;;;;;;5076743;28;20195;-60
2023/08/22 11:12:40;;;;;;;3.67;2.28;;;25.40;99.20;;;;;;5077114;28;20224;-59
2023/08/22 11:15:07;;;;;;;3.05;2.17;;;25.40;99.20;;;;;;5075344;28;20196;-62
2023/08/22 11:17:32;;;;;;;4.97;2.30;;;25.30;99.90;;;;;;5079262;28;20602;-57
2023/08/22 11:19:58;;;;;;;5.03;1.65;;;25.30;99.30;;;;;;5076000;28;20738;-58
2023/08/22 11:22:24;;;;;;;3.27;1.93;;;25.40;99.20;;;;;;5080047;28;21010;-64
2023/08/22 11:24:51;;;;;;;4.50;1.77;;;25.30;99.90;;;;;;5050792;28;20851;-56
2023/08/22 11:27:18;;;;;;;3.58;1.90;;;25.30;99.20;;;;;;5080517;28;20270;-61
2023/08/22 11:29:49;;;;;;;4.32;1.90;;;25.30;99.90;;;;;;5078306;28;20244;-61
2023/08/22 11:32:22;;;;;;;2.13;1.58;;;25.30;99.30;;;;;;5079919;28;20290;-68
2023/08/22 11:34:50;;;;;;;2.13;1.85;;;25.60;98.80;;;;;;5060098;28;20205;-60
2023/08/22 11:37:17;;;;;;;5.82;1.98;;;25.60;98.50;;;;;;5080162;28;20288;-64
2023/08/22 11:39:50;;;;;;;3.33;1.73;;;25.50;99.50;;;;;;5062812;28;20194;-62
2023/08/22 11:42:20;;;;;;;3.05;1.85;;;25.50;99.10;;;;;;5065899;28;20196;-61
2023/08/22 11:45:21;;;;;;;2.05;1.85;;;25.80;97.70;;;;;;5068516;28;20189;-71
2023/08/22 11:47:47;;;;;;;3.33;1.70;;;26.20;98.20;;;;;;5077777;28;20931;-67
2023/08/22 11:50:24;;;;;;;3.38;1.77;;;26.50;97.50;;;;;;5078349;28;20372;-61
2023/08/22 11:52:57;;;;;;;6.45;1.75;;;26.90;97.60;;;;;;5059559;28;20211;-67
2023/08/22 11:55:25;;;;;;;2.78;1.75;;;27.10;97.80;;;;;;5079333;28;20202;-62
2023/08/22 11:57:53;;;;;;;3.90;1.77;;;27.20;96.40;;;;;;5060516;28;20598;-65
2023/08/22 12:00:18;;;;;;;3.80;2.05;;;27.40;96.30;;;;;;5059914;28;20189;-61
2023/08/22 12:02:51;;;;;;;3.90;1.80;;;27.30;94.30;;;;;;5075610;28;20211;-60
2023/08/22 12:05:34;;;;;;;3.50;1.83;;;27.60;93.60;;;;;;5076515;28;20208;-71
2023/08/22 12:08:15;;;;;;;4.25;1.92;;;27.90;95.50;;;;;;5082970;28;20228;-62
2023/08/22 12:10:46;;;;;;;2.33;1.70;;;27.80;94.30;;;;;;5101074;28;20218;-58
2023/08/22 12:13:13;;;;;;;11.35;2.38;;;27.80;94.90;;;;;;5082641;28;20209;-58
2023/08/22 12:15:39;;;;;;;3.75;1.75;;;28.00;95.50;;;;;;5112199;28;20229;-59
2023/08/22 12:18:05;;;;;;;4.10;2.10;;;27.90;94.80;;;;;;5080084;28;20197;-65
2023/08/22 12:20:31;;;;;;;2.80;2.30;;;28.00;93.90;;;;;;5101571;28;20192;-66
2023/08/22 12:22:57;;;;;;;2.50;2.30;;;27.90;93.10;;;;;;5085262;28;20190;-65
2023/08/22 12:25:22;;;;;;;2.35;1.92;;;28.20;92.10;;;;;;5089065;28;20180;-61
2023/08/22 12:27:48;;;;;;;3.85;2.05;;;28.30;92.50;;;;;;5089006;28;20180;-58
2023/08/22 12:30:13;;;;;;;3.42;2.25;;;28.10;91.90;;;;;;5104525;27;20322;-58
2023/08/22 12:32:43;;;;;;;2.22;1.90;;;28.00;91.80;;;;;;5103538;27;20228;-58
2023/08/22 12:35:10;;;;;;;5.55;1.58;;;27.90;91.50;;;;;;5102661;28;20185;-59
2023/08/22 12:37:36;;;;;;;3.10;1.90;;;27.70;92.80;;;;;;5104366;27;20288;-59
2023/08/22 12:40:03;;;;;;;4.55;2.30;;;27.50;92.20;;;;;;5102229;28;20609;-59
2023/08/22 12:42:29;;;;;;;4.05;2.58;;;27.50;91.60;;;;;;5102281;27;20245;-58
2023/08/22 12:44:54;;;;;;;6.70;2.65;;;27.50;91.40;;;;;;5102301;28;20180;-66
2023/08/22 12:47:20;;;;;;;2.95;2.15;;;27.40;92.40;;;;;;5104713;27;20188;-57